createdAt,value
2023-10-11T00:00:09.804Z,20.84
2023-10-11T00:02:36.124Z,20.83
2023-10-11T00:05:02.589Z,20.82
2023-10-11T00:07:28.923Z,20.82
2023-10-11T00:09:55.212Z,20.82
2023-10-11T00:12:21.674Z,20.80
2023-10-11T00:14:48.050Z,20.79
2023-10-11T00:17:14.449Z,20.79
2023-10-11T00:19:40.871Z,20.78
2023-10-11T00:22:07.292Z,20.77
2023-10-11T00:24:33.580Z,20.76
2023-10-11T00:26:59.977Z,20.75
2023-10-11T00:29:26.332Z,20.74
2023-10-11T00:31:52.609Z,20.74
2023-10-11T00:34:19.001Z,20.73
2023-10-11T00:36:45.371Z,20.73
2023-10-11T00:39:11.724Z,20.72
2023-10-11T00:41:41.254Z,20.72
2023-10-11T00:44:07.714Z,20.70
2023-10-11T00:46:34.011Z,20.71
2023-10-11T00:49:00.350Z,20.69
2023-10-11T00:51:26.651Z,20.69
2023-10-11T00:53:52.971Z,20.68
2023-10-11T00:56:19.304Z,20.66
2023-10-11T00:58:45.635Z,20.67
2023-10-11T01:01:12.026Z,20.66
2023-10-11T01:03:38.457Z,20.66
2023-10-11T01:06:04.960Z,20.64
2023-10-11T01:08:31.303Z,20.63
2023-10-11T01:10:57.584Z,20.63
2023-10-11T01:13:24.000Z,20.62
2023-10-11T01:15:50.333Z,20.61
2023-10-11T01:18:16.782Z,20.61
2023-10-11T01:20:44.347Z,20.60
2023-10-11T01:23:10.643Z,20.58
2023-10-11T01:25:36.959Z,20.58
2023-10-11T01:28:03.267Z,20.57
2023-10-11T01:30:29.557Z,20.57
2023-10-11T01:32:55.978Z,20.55
2023-10-11T01:35:22.435Z,20.55
2023-10-11T01:37:48.950Z,20.54
2023-10-11T01:40:15.424Z,20.53
2023-10-11T01:42:41.727Z,20.53
2023-10-11T01:45:08.070Z,20.51
2023-10-11T01:47:34.443Z,20.51
2023-10-11T01:50:00.787Z,20.50
2023-10-11T01:52:27.186Z,20.49
2023-10-11T01:54:56.632Z,20.48
2023-10-11T01:57:22.972Z,20.47
2023-10-11T01:59:49.325Z,20.46
2023-10-11T02:02:15.671Z,20.46
2023-10-11T02:04:41.937Z,20.45
2023-10-11T02:07:08.759Z,20.44
2023-10-11T02:09:35.066Z,20.44
2023-10-11T02:12:01.391Z,20.43
2023-10-11T02:14:27.698Z,20.42
2023-10-11T02:16:54.003Z,20.42
2023-10-11T02:19:20.374Z,20.41
2023-10-11T02:21:46.679Z,20.41
2023-10-11T02:24:13.068Z,20.39
2023-10-11T02:26:39.460Z,20.39
2023-10-11T02:29:05.920Z,20.38
2023-10-11T02:31:32.233Z,20.37
2023-10-11T02:33:58.625Z,20.37
2023-10-11T02:36:24.918Z,20.36
2023-10-11T02:38:51.257Z,20.36
2023-10-11T02:41:17.613Z,20.36
2023-10-11T02:43:43.934Z,20.33
2023-10-11T02:46:10.243Z,20.33
2023-10-11T02:48:36.603Z,20.33
2023-10-11T02:51:02.962Z,20.33
2023-10-11T02:53:29.290Z,20.31
2023-10-11T02:55:55.550Z,20.31
2023-10-11T02:58:21.817Z,20.31
2023-10-11T03:00:48.150Z,20.31
2023-10-11T03:03:14.617Z,20.29
2023-10-11T03:05:40.990Z,20.30
2023-10-11T03:08:07.334Z,20.28
2023-10-11T03:10:33.653Z,20.27
2023-10-11T03:13:00.167Z,20.28
2023-10-11T03:15:26.542Z,20.27
2023-10-11T03:17:54.974Z,20.26
2023-10-11T03:20:21.437Z,20.26
2023-10-11T03:22:47.768Z,20.25
2023-10-11T03:25:14.056Z,20.25
2023-10-11T03:27:40.328Z,20.24
2023-10-11T03:30:06.661Z,20.23
2023-10-11T03:32:33.026Z,20.23
2023-10-11T03:34:59.310Z,20.22
2023-10-11T03:37:25.626Z,20.21
2023-10-11T03:39:51.917Z,20.21
2023-10-11T03:42:18.524Z,20.22
2023-10-11T03:44:45.083Z,20.21
2023-10-11T03:47:11.511Z,20.21
2023-10-11T03:49:37.845Z,20.20
2023-10-11T03:52:04.157Z,20.20
2023-10-11T03:54:30.553Z,20.19
2023-10-11T03:56:57.132Z,20.17
2023-10-11T03:59:23.446Z,20.18
2023-10-11T04:01:49.727Z,20.17
2023-10-11T04:04:16.170Z,20.15
2023-10-11T04:06:42.614Z,20.15
2023-10-11T04:09:09.067Z,20.15
2023-10-11T04:11:35.383Z,20.14
2023-10-11T04:14:01.688Z,20.13
2023-10-11T04:16:28.613Z,20.13
2023-10-11T04:18:54.941Z,20.12
2023-10-11T04:21:21.452Z,20.11
2023-10-11T04:23:47.919Z,20.11
2023-10-11T04:26:14.222Z,20.10
2023-10-11T04:28:40.514Z,20.10
2023-10-11T04:31:06.903Z,20.10
2023-10-11T04:33:33.246Z,20.09
2023-10-11T04:35:59.631Z,20.09
2023-10-11T04:38:25.949Z,20.08
2023-10-11T04:40:53.522Z,20.07
2023-10-11T04:43:19.821Z,20.07
2023-10-11T04:48:15.477Z,20.05
2023-10-11T04:50:41.874Z,20.05
2023-10-11T04:53:08.155Z,20.04
2023-10-11T04:55:34.413Z,20.04
2023-10-11T04:58:00.724Z,20.03
2023-10-11T05:00:27.107Z,20.02
2023-10-11T05:02:53.595Z,20.02
2023-10-11T05:05:19.999Z,20.00
2023-10-11T05:07:46.337Z,20.00
2023-10-11T05:10:12.822Z,20.00
2023-10-11T05:12:39.108Z,19.99
2023-10-11T05:15:05.425Z,19.98
2023-10-11T05:17:31.766Z,19.97
2023-10-11T05:19:58.123Z,19.97
2023-10-11T05:22:24.503Z,19.96
2023-10-11T05:24:50.793Z,19.95
2023-10-11T05:27:17.095Z,19.94
2023-10-11T05:29:43.403Z,19.93
2023-10-11T05:32:09.690Z,19.93
2023-10-11T05:34:35.936Z,19.93
2023-10-11T05:37:02.297Z,19.92
2023-10-11T05:39:28.629Z,19.91
2023-10-11T05:41:54.953Z,19.92
2023-10-11T05:44:21.281Z,19.92
2023-10-11T05:46:47.664Z,19.91
2023-10-11T05:49:14.354Z,19.90
2023-10-11T05:51:40.671Z,19.90
2023-10-11T05:54:07.140Z,19.90
2023-10-11T05:56:33.504Z,19.90
2023-10-11T05:58:59.818Z,19.91
2023-10-11T06:01:26.138Z,19.90
2023-10-11T06:03:55.562Z,19.91
2023-10-11T06:06:22.177Z,19.91
2023-10-11T06:08:48.603Z,19.94
2023-10-11T06:11:14.906Z,19.95
2023-10-11T06:13:41.209Z,20.02
2023-10-11T06:16:07.524Z,20.14
2023-10-11T06:18:33.853Z,20.17
2023-10-11T06:21:00.206Z,20.24
2023-10-11T06:23:26.533Z,20.25
2023-10-11T06:25:52.927Z,20.20
2023-10-11T06:28:19.286Z,20.19
2023-10-11T06:30:45.588Z,20.30
2023-10-11T06:33:11.905Z,20.43
2023-10-11T06:35:38.296Z,20.51
2023-10-11T06:38:04.747Z,20.55
2023-10-11T06:40:31.061Z,20.64
2023-10-11T06:42:57.330Z,20.76
2023-10-11T06:45:23.716Z,20.85
2023-10-11T06:47:50.142Z,20.91
2023-10-11T06:50:16.475Z,20.96
2023-10-11T06:52:42.754Z,21.02
2023-10-11T06:55:09.057Z,21.06
2023-10-11T06:57:35.405Z,21.06
2023-10-11T07:00:01.885Z,21.13
2023-10-11T07:02:31.381Z,21.25
2023-10-11T07:04:57.756Z,21.32
2023-10-11T07:07:24.159Z,21.35
2023-10-11T07:09:50.604Z,21.44
2023-10-11T07:12:17.017Z,21.52
2023-10-11T07:14:43.368Z,21.63
2023-10-11T07:17:09.658Z,21.76
2023-10-11T07:19:35.967Z,21.88
2023-10-11T07:22:02.294Z,21.90
2023-10-11T07:24:28.647Z,21.84
2023-10-11T07:26:55.017Z,21.82
2023-10-11T07:29:21.372Z,21.83
2023-10-11T07:31:48.118Z,21.88
2023-10-11T07:34:14.570Z,21.92
2023-10-11T07:36:41.004Z,21.99
2023-10-11T07:39:07.328Z,21.93
2023-10-11T07:41:33.638Z,21.95
2023-10-11T07:43:59.941Z,22.11
2023-10-11T07:46:26.398Z,22.20
2023-10-11T07:48:52.840Z,22.25
2023-10-11T07:51:19.294Z,22.27
2023-10-11T07:53:46.202Z,22.28
2023-10-11T07:56:12.514Z,22.36
2023-10-11T07:58:38.805Z,22.42
2023-10-11T08:01:05.106Z,22.45
2023-10-11T08:03:31.915Z,22.51
2023-10-11T08:05:58.300Z,22.58
2023-10-11T08:08:24.613Z,22.54
2023-10-11T08:10:51.049Z,22.62
2023-10-11T08:13:17.355Z,22.70
2023-10-11T08:15:43.719Z,22.75
2023-10-11T08:18:10.267Z,22.76
2023-10-11T08:20:36.686Z,22.79
2023-10-11T08:23:02.974Z,22.97
2023-10-11T08:25:29.339Z,23.00
2023-10-11T08:27:55.684Z,23.07
2023-10-11T08:30:22.184Z,23.17
2023-10-11T08:32:48.657Z,23.28
2023-10-11T08:35:15.046Z,23.47
2023-10-11T08:37:41.414Z,23.54
2023-10-11T08:40:07.853Z,23.63
2023-10-11T08:42:34.240Z,23.76
2023-10-11T08:45:00.629Z,23.70
2023-10-11T08:47:27.138Z,23.64
2023-10-11T08:49:53.446Z,23.57
2023-10-11T08:52:19.817Z,23.47
2023-10-11T08:54:46.192Z,23.30
2023-10-11T08:57:12.608Z,23.06
2023-10-11T08:59:38.898Z,22.88
2023-10-11T09:02:05.375Z,22.81
2023-10-11T09:04:31.777Z,22.78
2023-10-11T09:06:58.157Z,22.75
2023-10-11T09:09:24.552Z,22.73
2023-10-11T09:11:50.888Z,22.72
2023-10-11T09:14:17.355Z,22.74
2023-10-11T09:16:43.769Z,22.73
2023-10-11T09:19:10.085Z,22.74
2023-10-11T09:21:36.394Z,22.74
2023-10-11T09:24:02.945Z,22.74
2023-10-11T09:26:39.073Z,22.75
2023-10-11T09:29:08.392Z,22.76
2023-10-11T09:31:34.767Z,22.77
2023-10-11T09:34:01.217Z,22.77
2023-10-11T09:36:27.601Z,22.78
2023-10-11T09:38:53.976Z,22.80
2023-10-11T09:41:20.265Z,22.80
2023-10-11T09:43:47.269Z,22.81
2023-10-11T09:46:13.611Z,22.81
2023-10-11T09:48:39.983Z,22.81
2023-10-11T09:51:06.379Z,22.82
2023-10-11T09:53:32.697Z,22.83
2023-10-11T09:55:59.063Z,22.84
2023-10-11T09:58:25.368Z,22.85
2023-10-11T10:00:51.723Z,22.86
2023-10-11T10:03:18.574Z,22.87
2023-10-11T10:05:45.009Z,22.87
2023-10-11T10:08:13.206Z,22.90
2023-10-11T10:10:39.577Z,22.91
2023-10-11T10:13:06.255Z,22.92
2023-10-11T10:15:32.651Z,22.92
2023-10-11T10:17:59.186Z,22.93
2023-10-11T10:20:25.635Z,22.96
2023-10-11T10:22:52.314Z,22.97
2023-10-11T10:25:18.744Z,22.97
2023-10-11T10:27:45.232Z,22.98
2023-10-11T10:30:11.578Z,23.00
2023-10-11T10:32:38.260Z,23.02
2023-10-11T10:35:04.527Z,23.04
2023-10-11T10:37:30.922Z,23.06
2023-10-11T10:39:57.267Z,23.06
2023-10-11T10:42:23.620Z,23.09
2023-10-11T10:44:49.946Z,23.11
2023-10-11T10:47:16.269Z,23.12
2023-10-11T10:49:43.171Z,23.13
2023-10-11T10:52:09.706Z,23.15
2023-10-11T10:54:36.054Z,23.16
2023-10-11T10:57:02.418Z,23.19
2023-10-11T10:59:28.777Z,23.21
2023-10-11T11:01:55.096Z,23.22
2023-10-11T11:04:21.746Z,23.24
2023-10-11T11:06:48.680Z,23.24
2023-10-11T11:09:15.136Z,23.26
2023-10-11T11:11:41.578Z,23.27
2023-10-11T11:14:07.982Z,23.29
2023-10-11T11:16:34.314Z,23.29
2023-10-11T11:19:00.671Z,23.31
2023-10-11T11:21:27.112Z,23.32
2023-10-11T11:23:53.565Z,23.33
2023-10-11T11:28:49.163Z,23.36
2023-10-11T11:31:15.486Z,23.38
2023-10-11T11:33:41.807Z,23.40
2023-10-11T11:36:08.115Z,23.42
2023-10-11T11:38:34.539Z,23.43
2023-10-11T11:41:01.851Z,23.45
2023-10-11T11:43:29.689Z,23.46
2023-10-11T11:45:55.996Z,23.48
2023-10-11T11:48:22.528Z,23.50
2023-10-11T11:50:48.857Z,23.50
2023-10-11T11:53:15.175Z,23.53
2023-10-11T11:55:41.538Z,23.53
2023-10-11T11:58:07.931Z,23.55
2023-10-11T12:00:34.362Z,23.55
2023-10-11T12:03:02.903Z,23.56
2023-10-11T12:05:29.252Z,23.59
2023-10-11T12:07:55.551Z,23.58
2023-10-11T12:10:21.920Z,23.57
2023-10-11T12:12:48.224Z,23.60
2023-10-11T12:15:14.624Z,23.62
2023-10-11T12:17:40.999Z,23.64
2023-10-11T12:20:07.329Z,23.63
2023-10-11T12:22:33.610Z,23.65
2023-10-11T12:25:00.223Z,23.67
2023-10-11T12:27:26.927Z,23.68
2023-10-11T12:30:08.135Z,23.71
2023-10-11T12:32:37.533Z,23.72
2023-10-11T12:35:03.989Z,23.73
2023-10-11T12:37:30.455Z,23.73
2023-10-11T12:39:56.804Z,23.75
2023-10-11T12:42:23.159Z,23.75
2023-10-11T12:44:49.762Z,23.78
2023-10-11T12:47:16.128Z,23.80
2023-10-11T12:49:43.553Z,23.83
2023-10-11T12:52:09.860Z,23.84
2023-10-11T12:54:36.193Z,23.87
2023-10-11T12:57:03.030Z,23.84
2023-10-11T12:59:29.525Z,23.85
2023-10-11T13:01:55.840Z,23.88
2023-10-11T13:04:22.553Z,23.91
2023-10-11T13:06:52.230Z,23.93
2023-10-11T13:09:18.548Z,23.91
2023-10-11T13:11:44.929Z,23.89
2023-10-11T13:14:11.207Z,23.91
2023-10-11T13:16:37.498Z,23.90
2023-10-11T13:19:03.822Z,23.91
2023-10-11T13:21:30.132Z,23.90
2023-10-11T13:23:56.776Z,23.89
2023-10-11T13:26:23.057Z,23.90
2023-10-11T13:28:49.355Z,23.89
2023-10-11T13:31:15.784Z,23.90
2023-10-11T13:33:42.108Z,23.88
2023-10-11T13:36:11.517Z,23.87
2023-10-11T13:38:37.836Z,23.87
2023-10-11T13:41:04.122Z,23.86
2023-10-11T13:43:30.501Z,23.84
2023-10-11T13:45:56.873Z,23.84
2023-10-11T13:48:23.258Z,23.82
2023-10-11T13:50:49.658Z,23.82
2023-10-11T13:53:15.967Z,23.81
2023-10-11T13:55:42.299Z,23.81
2023-10-11T13:58:08.695Z,23.79
2023-10-11T14:00:38.014Z,23.79
2023-10-11T14:03:04.670Z,23.79
2023-10-11T14:05:31.051Z,23.78
2023-10-11T14:07:57.326Z,23.77
2023-10-11T14:10:23.717Z,23.76
2023-10-11T14:12:50.028Z,23.75
2023-10-11T14:15:16.786Z,23.76
2023-10-11T14:17:43.209Z,23.73
2023-10-11T14:20:09.540Z,23.72
2023-10-11T14:22:35.828Z,23.71
2023-10-11T14:25:02.121Z,23.69
2023-10-11T14:27:28.455Z,23.70
2023-10-11T14:29:54.837Z,23.69
2023-10-11T14:32:21.126Z,23.69
2023-10-11T14:34:47.471Z,23.69
2023-10-11T14:37:14.336Z,23.68
2023-10-11T14:39:40.836Z,23.67
2023-10-11T14:42:07.369Z,23.67
2023-10-11T14:44:33.703Z,23.66
2023-10-11T14:47:00.236Z,23.66
2023-10-11T14:49:26.613Z,23.64
2023-10-11T14:51:52.987Z,23.64
2023-10-11T14:54:19.606Z,23.62
2023-10-11T14:56:46.526Z,23.62
2023-10-11T14:59:12.877Z,23.61
2023-10-11T15:01:39.163Z,23.61
2023-10-11T15:04:05.533Z,23.60
2023-10-11T15:06:32.060Z,23.60
2023-10-11T15:08:58.456Z,23.58
2023-10-11T15:11:24.786Z,23.57
2023-10-11T15:13:51.104Z,23.56
2023-10-11T15:16:17.474Z,23.55
2023-10-11T15:18:43.992Z,23.55
2023-10-11T15:21:10.391Z,23.53
2023-10-11T15:23:36.700Z,23.53
2023-10-11T15:26:04.676Z,23.52
2023-10-11T15:28:31.290Z,23.50
2023-10-11T15:30:57.680Z,23.49
2023-10-11T15:33:24.183Z,23.49
2023-10-11T15:35:50.830Z,23.47
2023-10-11T15:38:17.142Z,23.46
2023-10-11T15:40:43.437Z,23.46
2023-10-11T15:43:09.737Z,23.44
2023-10-11T15:45:36.079Z,23.43
2023-10-11T15:48:02.481Z,23.41
2023-10-11T15:50:28.916Z,23.40
2023-10-11T15:52:55.209Z,23.39
2023-10-11T15:55:21.614Z,23.37
2023-10-11T15:57:48.294Z,23.36
2023-10-11T16:00:14.821Z,23.35
2023-10-11T16:02:41.173Z,23.34
2023-10-11T16:05:07.489Z,23.33
2023-10-11T16:07:35.710Z,23.31
2023-10-11T16:10:02.073Z,23.21
2023-10-11T16:12:28.444Z,23.29
2023-10-11T16:14:56.012Z,23.28
2023-10-11T16:17:22.683Z,23.26
2023-10-11T16:19:49.370Z,23.25
2023-10-11T16:22:15.725Z,23.24
2023-10-11T16:24:42.051Z,23.23
2023-10-11T16:27:08.541Z,23.21
2023-10-11T16:29:34.890Z,23.20
2023-10-11T16:32:01.360Z,23.19
2023-10-11T16:34:27.707Z,23.17
2023-10-11T16:36:54.108Z,23.16
2023-10-11T16:39:34.952Z,23.15
2023-10-11T16:42:02.451Z,23.13
2023-10-11T16:44:28.825Z,23.11
2023-10-11T16:46:55.330Z,23.10
2023-10-11T16:49:21.674Z,23.09
2023-10-11T16:51:48.104Z,23.07
2023-10-11T16:54:14.698Z,23.04
2023-10-11T16:56:41.083Z,23.05
2023-10-11T16:59:07.442Z,23.03
2023-10-11T17:01:33.829Z,23.01
2023-10-11T17:04:00.345Z,23.00
2023-10-11T17:06:26.858Z,22.98
2023-10-11T17:08:57.399Z,22.96
2023-10-11T17:11:24.069Z,22.95
2023-10-11T17:13:50.357Z,22.94
2023-10-11T17:16:16.668Z,22.92
2023-10-11T17:18:43.024Z,22.91
2023-10-11T17:21:09.356Z,22.89
2023-10-11T17:23:35.749Z,22.88
2023-10-11T17:26:12.958Z,22.87
2023-10-11T17:28:40.544Z,22.85
2023-10-11T17:31:06.990Z,22.83
2023-10-11T17:33:33.395Z,22.83
2023-10-11T17:35:59.753Z,22.81
2023-10-11T17:38:26.032Z,22.80
2023-10-11T17:40:52.388Z,22.79
2023-10-11T17:43:18.725Z,22.77
2023-10-11T17:45:45.512Z,22.75
2023-10-11T17:48:11.934Z,22.75
2023-10-11T17:50:38.413Z,22.71
2023-10-11T17:53:04.763Z,22.71
2023-10-11T17:55:31.146Z,22.70
2023-10-11T17:57:57.479Z,22.69
2023-10-11T18:00:28.076Z,22.67
2023-10-11T18:02:54.535Z,22.66
2023-10-11T18:05:20.880Z,22.65
2023-10-11T18:07:47.175Z,22.64
2023-10-11T18:10:14.642Z,22.63
2023-10-11T18:12:41.039Z,22.61
2023-10-11T18:15:07.373Z,22.60
2023-10-11T18:17:33.848Z,22.59
2023-10-11T18:20:00.236Z,22.58
2023-10-11T18:22:26.572Z,22.56
2023-10-11T18:24:52.921Z,22.55
2023-10-11T18:27:19.288Z,22.54
2023-10-11T18:29:45.621Z,22.53
2023-10-11T18:32:11.915Z,22.51
2023-10-11T18:34:38.249Z,22.50
2023-10-11T18:37:04.556Z,22.49
2023-10-11T18:39:30.918Z,22.48
2023-10-11T18:41:57.292Z,22.46
2023-10-11T18:44:23.592Z,22.47
2023-10-11T18:46:49.959Z,22.44
2023-10-11T18:49:16.413Z,22.44
2023-10-11T18:51:42.760Z,22.41
2023-10-11T18:54:09.157Z,22.40
2023-10-11T18:56:35.479Z,22.40
2023-10-11T18:59:01.785Z,22.38
2023-10-11T19:01:28.129Z,22.37
2023-10-11T19:03:54.653Z,22.36
2023-10-11T19:06:21.071Z,22.34
2023-10-11T19:08:47.462Z,22.33
2023-10-11T19:11:13.813Z,22.32
2023-10-11T19:13:40.141Z,22.31
2023-10-11T19:16:21.013Z,22.30
2023-10-11T19:18:50.588Z,22.29
2023-10-11T19:21:17.204Z,22.28
2023-10-11T19:23:43.519Z,22.27
2023-10-11T19:26:09.854Z,22.27
2023-10-11T19:28:36.184Z,22.26
2023-10-11T19:31:02.775Z,22.25
2023-10-11T19:33:29.185Z,22.24
2023-10-11T19:35:55.547Z,22.22
2023-10-11T19:38:21.883Z,22.21
2023-10-11T19:40:48.701Z,22.20
2023-10-11T19:43:15.018Z,22.20
2023-10-11T19:45:41.380Z,22.18
2023-10-11T19:48:07.837Z,22.17
2023-10-11T19:50:34.201Z,22.16
2023-10-11T19:53:00.530Z,22.16
2023-10-11T19:55:30.265Z,22.15
2023-10-11T19:57:57.182Z,22.14
2023-10-11T20:00:24.811Z,22.13
2023-10-11T20:02:51.228Z,22.12
2023-10-11T20:05:19.070Z,22.11
2023-10-11T20:07:45.684Z,22.10
2023-10-11T20:10:12.090Z,22.09
2023-10-11T20:12:38.428Z,22.08
2023-10-11T20:15:04.773Z,22.08
2023-10-11T20:17:31.176Z,22.06
2023-10-11T20:19:57.501Z,22.07
2023-10-11T20:22:23.811Z,22.04
2023-10-11T20:24:50.130Z,22.05
2023-10-11T20:27:16.462Z,22.04
2023-10-11T20:29:42.806Z,22.03
2023-10-11T20:32:09.123Z,22.03
2023-10-11T20:34:35.431Z,22.02
2023-10-11T20:37:01.849Z,22.02
2023-10-11T20:39:28.209Z,22.02
2023-10-11T20:41:54.625Z,22.00
2023-10-11T20:44:21.072Z,22.00
2023-10-11T20:46:47.480Z,21.99
2023-10-11T20:49:13.932Z,21.99
2023-10-11T20:51:40.374Z,21.98
2023-10-11T20:54:06.672Z,21.98
2023-10-11T20:56:33.066Z,21.97
2023-10-11T20:58:59.403Z,21.97
2023-10-11T21:01:25.745Z,21.96
2023-10-11T21:03:52.161Z,21.96
2023-10-11T21:06:18.511Z,21.95
2023-10-11T21:08:44.917Z,21.95
2023-10-11T21:11:13.939Z,21.95
2023-10-11T21:13:40.413Z,21.94
2023-10-11T21:16:06.745Z,21.93
2023-10-11T21:18:33.200Z,21.92
2023-10-11T21:20:59.650Z,21.92
2023-10-11T21:23:26.009Z,21.92
2023-10-11T21:25:52.378Z,21.91
2023-10-11T21:28:18.675Z,21.90
2023-10-11T21:30:45.367Z,21.90
2023-10-11T21:33:11.850Z,21.90
2023-10-11T21:35:38.133Z,21.88
2023-10-11T21:38:04.501Z,21.88
2023-10-11T21:40:30.848Z,21.88
2023-10-11T21:42:57.140Z,21.87
2023-10-11T21:45:23.524Z,21.86
2023-10-11T21:47:49.955Z,21.85
2023-10-11T21:50:16.458Z,21.85
2023-10-11T21:52:42.806Z,21.85
2023-10-11T21:55:09.122Z,21.85
2023-10-11T21:57:35.454Z,21.83
2023-10-11T22:00:01.857Z,21.83
2023-10-11T22:02:28.280Z,21.83
2023-10-11T22:04:54.860Z,21.82
2023-10-11T22:07:21.160Z,21.80
2023-10-11T22:09:47.506Z,21.80
2023-10-11T22:12:13.864Z,21.80
2023-10-11T22:14:40.154Z,21.79
2023-10-11T22:17:06.446Z,21.78
2023-10-11T22:19:35.786Z,21.77
2023-10-11T22:22:02.171Z,21.76
2023-10-11T22:24:28.541Z,21.76
2023-10-11T22:26:54.853Z,21.74
2023-10-11T22:29:21.200Z,21.73
2023-10-11T22:31:47.598Z,21.73
2023-10-11T22:34:14.091Z,21.73
2023-10-11T22:36:40.466Z,21.72
2023-10-11T22:39:06.779Z,21.72
2023-10-11T22:41:33.095Z,21.72
2023-10-11T22:43:59.950Z,21.70
2023-10-11T22:46:26.366Z,21.70
2023-10-11T22:48:52.816Z,21.69
2023-10-11T22:51:19.232Z,21.68
2023-10-11T22:53:59.817Z,21.67
2023-10-11T22:56:27.076Z,21.67
2023-10-11T22:58:53.431Z,21.66
2023-10-11T23:01:19.780Z,21.66
2023-10-11T23:03:46.284Z,21.65
2023-10-11T23:06:12.746Z,21.64
2023-10-11T23:08:39.126Z,21.63
2023-10-11T23:11:05.481Z,21.63
2023-10-11T23:13:31.832Z,21.62
2023-10-11T23:15:58.209Z,21.61
2023-10-11T23:18:24.687Z,21.61
2023-10-11T23:20:54.534Z,21.59
2023-10-11T23:23:20.842Z,21.59
2023-10-11T23:25:47.260Z,21.59
2023-10-11T23:28:13.617Z,21.58
2023-10-11T23:30:39.971Z,21.57
2023-10-11T23:33:06.361Z,21.56
2023-10-11T23:35:32.894Z,21.56
2023-10-11T23:37:59.229Z,21.55
2023-10-11T23:40:25.556Z,21.54
2023-10-11T23:42:51.867Z,21.53
2023-10-11T23:45:18.253Z,21.53
2023-10-11T23:47:44.665Z,21.53
2023-10-11T23:50:11.011Z,21.51
2023-10-11T23:52:37.331Z,21.52
2023-10-11T23:55:03.695Z,21.51
2023-10-11T23:57:30.080Z,21.51
2023-10-11T23:59:56.571Z,21.51
